createdAt,value
2023-03-17T00:34:12.667Z,1004.60
2023-03-17T00:34:17.651Z,1004.97
2023-03-17T00:35:17.697Z,1004.93
2023-03-17T02:02:28.727Z,1004.91
2023-03-17T02:02:33.736Z,1004.05
2023-03-17T02:03:33.802Z,1004.03
2023-03-17T02:04:33.766Z,1004.02
2023-03-17T02:05:33.704Z,1004.03
2023-03-17T02:06:33.707Z,1004.04
2023-03-17T02:07:33.747Z,1004.01
2023-03-17T02:08:33.672Z,1004.00
2023-03-17T02:09:33.674Z,1003.98
2023-03-17T02:10:33.659Z,1003.97
2023-03-17T02:11:33.672Z,1003.97
2023-03-17T02:12:33.642Z,1003.94
2023-03-17T02:13:33.637Z,1003.92
2023-03-17T02:14:33.615Z,1003.87
2023-03-17T02:15:33.584Z,1003.84
2023-03-17T02:16:33.698Z,1003.84
2023-03-17T02:17:33.630Z,1003.84
2023-03-17T02:18:33.632Z,1003.83
2023-03-17T02:19:33.556Z,1003.82
2023-03-17T02:20:33.585Z,1003.83
2023-03-17T02:21:33.593Z,1003.82
2023-03-17T02:22:33.546Z,1003.82
2023-03-17T02:23:33.541Z,1003.83
2023-03-17T02:24:33.509Z,1003.85
2023-03-17T02:25:33.506Z,1003.87
2023-03-17T02:26:33.476Z,1003.89
2023-03-17T02:27:33.441Z,1003.91
2023-03-17T02:28:33.462Z,1003.90
2023-03-17T02:29:33.457Z,1003.88
2023-03-17T02:30:33.533Z,1003.86
2023-03-17T02:31:33.445Z,1003.83
2023-03-17T03:17:44.721Z,1003.81
2023-03-17T03:17:49.790Z,1003.71
2023-03-17T03:18:49.743Z,1003.70
2023-03-17T03:19:50.845Z,1003.70
2023-03-17T03:35:02.234Z,1003.70
2023-03-17T03:35:08.405Z,1003.86
2023-03-17T03:36:09.224Z,1003.84
2023-03-17T03:37:08.322Z,1003.85
2023-03-17T04:25:20.262Z,1003.85
2023-03-17T04:25:26.520Z,1003.62
2023-03-17T05:09:38.189Z,1003.62
2023-03-17T05:49:56.116Z,1003.55
2023-03-17T05:50:03.225Z,1003.48
2023-03-17T05:51:14.619Z,1003.51
2023-03-17T05:52:02.384Z,1003.55
2023-03-17T05:53:02.382Z,1003.59
2023-03-17T05:54:02.111Z,1003.64
2023-03-17T07:36:13.407Z,1003.67
2023-03-17T07:36:19.439Z,1003.55
2023-03-17T07:37:19.470Z,1003.57
2023-03-17T07:38:19.311Z,1003.60
2023-03-17T07:39:19.533Z,1003.61
2023-03-17T07:40:19.446Z,1003.61
2023-03-17T07:41:19.456Z,1003.61
2023-03-17T07:42:19.697Z,1003.60
2023-03-17T07:43:19.630Z,1003.59
2023-03-17T07:44:19.359Z,1003.59
2023-03-17T07:45:20.085Z,1003.58
2023-03-17T07:46:19.815Z,1003.58
2023-03-17T07:47:19.326Z,1003.59
2023-03-17T07:48:19.227Z,1003.62
2023-03-17T07:49:27.767Z,1003.63
2023-03-17T07:50:19.391Z,1003.62
2023-03-17T07:51:19.591Z,1003.59
2023-03-17T07:52:19.231Z,1003.57
2023-03-17T07:53:19.662Z,1003.59
2023-03-17T07:54:19.303Z,1003.58
2023-03-17T07:55:19.206Z,1003.57
2023-03-17T07:56:19.326Z,1003.55
2023-03-17T07:57:19.417Z,1003.54
2023-03-17T07:58:19.293Z,1003.49
2023-03-17T10:13:30.958Z,1003.45
2023-03-17T10:13:36.004Z,1003.45
2023-03-17T10:14:37.084Z,1003.43
2023-03-17T10:15:37.324Z,1003.41
2023-03-17T10:16:37.649Z,1003.37
2023-03-17T10:17:37.036Z,1003.34
2023-03-17T10:18:37.183Z,1003.32
2023-03-17T10:19:37.009Z,1003.30
2023-03-17T10:20:36.967Z,1003.27
2023-03-17T10:21:37.037Z,1003.23
2023-03-17T10:22:37.499Z,1003.24
2023-03-17T10:23:36.942Z,1003.23
2023-03-17T10:24:36.865Z,1003.24
2023-03-17T10:25:36.861Z,1003.26
2023-03-17T10:26:36.762Z,1003.26
2023-03-17T10:27:36.835Z,1003.26
2023-03-17T10:28:36.708Z,1003.28
2023-03-17T10:29:36.834Z,1003.29
2023-03-17T10:30:36.727Z,1003.30
2023-03-17T10:31:36.872Z,1003.30
2023-03-17T10:32:36.756Z,1003.30
2023-03-17T10:33:36.797Z,1003.29
2023-03-17T10:34:38.104Z,1003.29
2023-03-17T10:35:36.923Z,1003.27
2023-03-17T10:36:36.730Z,1003.24
2023-03-17T10:37:36.944Z,1003.27
2023-03-17T10:38:36.804Z,1003.23
2023-03-17T10:39:36.740Z,1003.20
2023-03-17T10:40:36.612Z,1003.20
2023-03-17T10:41:36.982Z,1003.21
2023-03-17T10:42:36.665Z,1003.23
2023-03-17T10:43:36.967Z,1003.22
2023-03-17T10:44:37.087Z,1003.23
2023-03-17T10:45:39.118Z,1003.23
2023-03-17T10:46:36.704Z,1003.21
2023-03-17T10:47:36.797Z,1003.19
2023-03-17T10:48:36.688Z,1003.22
2023-03-17T10:49:36.865Z,1003.27
2023-03-17T10:50:36.646Z,1003.27
2023-03-17T10:51:36.801Z,1003.31
2023-03-17T10:52:36.555Z,1003.28
2023-03-17T10:53:36.630Z,1003.26
2023-03-17T10:54:36.538Z,1003.21
2023-03-17T10:55:36.919Z,1003.20
2023-03-17T10:56:36.637Z,1003.14
2023-03-17T10:57:36.513Z,1003.15
2023-03-17T10:58:36.542Z,1003.13
2023-03-17T10:59:36.570Z,1003.17
2023-03-17T11:00:36.638Z,1003.14
2023-03-17T11:01:36.565Z,1003.14
2023-03-17T11:02:36.537Z,1003.13
2023-03-17T11:03:36.696Z,1003.11
2023-03-17T11:36:47.506Z,1003.12
2023-03-17T11:36:55.385Z,1003.04
2023-03-17T11:37:53.583Z,1003.03
2023-03-17T11:38:53.613Z,1003.03
2023-03-17T11:39:53.804Z,1003.00
2023-03-17T11:40:53.626Z,1002.99
2023-03-17T11:41:53.502Z,1003.01
2023-03-17T11:42:54.773Z,1003.03
2023-03-17T11:43:53.611Z,1003.01
2023-03-17T11:44:53.463Z,1003.00
2023-03-17T15:37:46.940Z,1001.60
2023-03-17T15:38:47.910Z,1001.61
2023-03-17T15:39:47.934Z,1001.63
2023-03-17T15:40:47.900Z,1001.64
2023-03-17T15:41:47.892Z,1001.66
2023-03-17T15:42:47.884Z,1001.68
2023-03-17T15:43:47.901Z,1001.70
2023-03-17T15:44:47.851Z,1001.72
2023-03-17T15:45:47.908Z,1001.73
2023-03-17T15:46:47.815Z,1001.73
2023-03-17T15:47:47.825Z,1001.73
2023-03-17T15:48:47.795Z,1001.73
2023-03-17T15:49:47.869Z,1001.73
2023-03-17T15:50:47.806Z,1001.71
2023-03-17T15:51:47.827Z,1001.70
2023-03-17T15:52:47.792Z,1001.70
2023-03-17T15:53:47.780Z,1001.70
2023-03-17T15:54:47.771Z,1001.71
2023-03-17T15:55:47.754Z,1001.71
2023-03-17T15:56:47.746Z,1001.69
2023-03-17T15:57:54.774Z,1001.67
2023-03-17T15:58:47.705Z,1001.66
2023-03-17T15:59:47.739Z,1001.65
2023-03-17T16:00:47.698Z,1001.65
2023-03-17T16:01:47.703Z,1001.66
2023-03-17T16:02:47.814Z,1001.67
2023-03-17T16:03:47.696Z,1001.63
2023-03-17T16:04:47.736Z,1001.62
2023-03-17T16:05:47.730Z,1001.63
2023-03-17T16:06:48.802Z,1001.65
2023-03-17T16:07:47.732Z,1001.66
2023-03-17T16:08:47.600Z,1001.67
2023-03-17T16:09:47.600Z,1001.68
2023-03-17T16:10:47.570Z,1001.70
2023-03-17T16:11:47.583Z,1001.73
2023-03-17T16:12:47.568Z,1001.74
2023-03-17T16:13:47.643Z,1001.76
2023-03-17T16:14:47.551Z,1001.74
2023-03-17T16:15:47.592Z,1001.76
2023-03-17T16:16:47.540Z,1001.75
2023-03-17T16:17:47.559Z,1001.75
2023-03-17T16:18:47.586Z,1001.74
2023-03-17T16:19:47.507Z,1001.73
2023-03-17T16:20:47.487Z,1001.73
2023-03-17T16:21:47.517Z,1001.75
2023-03-17T16:22:47.563Z,1001.74
2023-03-17T16:23:47.458Z,1001.75
2023-03-17T16:24:47.438Z,1001.75
2023-03-17T16:25:47.451Z,1001.75
2023-03-17T16:26:47.506Z,1001.75
2023-03-17T16:27:47.400Z,1001.78
2023-03-17T16:28:47.434Z,1001.79
2023-03-17T16:29:47.428Z,1001.78
2023-03-17T16:30:47.530Z,1001.78
2023-03-17T16:31:47.386Z,1001.76
2023-03-17T16:32:47.396Z,1001.74
2023-03-17T16:33:47.387Z,1001.74
2023-03-17T16:34:47.357Z,1001.76
2023-03-17T16:35:47.420Z,1001.80
2023-03-17T16:36:47.369Z,1001.84
2023-03-17T16:37:47.312Z,1001.85
2023-03-17T16:38:47.346Z,1001.88
2023-03-17T16:39:47.293Z,1001.87
2023-03-17T16:40:47.334Z,1001.89
2023-03-17T16:41:47.298Z,1001.90
2023-03-17T16:42:47.335Z,1001.89
2023-03-17T16:43:47.284Z,1001.89
2023-03-17T16:44:47.366Z,1001.87
2023-03-17T16:45:47.226Z,1001.86
2023-03-17T16:46:47.327Z,1001.84
2023-03-17T16:47:47.207Z,1001.87
2023-03-17T16:48:47.218Z,1001.87
2023-03-17T16:49:47.226Z,1001.86
2023-03-17T16:50:47.216Z,1001.85
2023-03-17T16:51:49.380Z,1001.82
2023-03-17T16:52:47.226Z,1001.84
2023-03-17T16:53:47.155Z,1001.84
2023-03-17T16:54:47.173Z,1001.85
2023-03-17T16:55:47.204Z,1001.85
2023-03-17T16:56:47.336Z,1001.86
2023-03-17T16:57:47.122Z,1001.86
2023-03-17T16:58:47.122Z,1001.87
2023-03-17T16:59:47.150Z,1001.88
2023-03-17T17:00:47.132Z,1001.92
2023-03-17T17:01:47.167Z,1001.94
2023-03-17T17:02:49.601Z,1001.96
2023-03-17T17:03:47.087Z,1001.96
2023-03-17T17:04:47.063Z,1001.95
2023-03-17T17:05:47.036Z,1001.95
2023-03-17T17:06:47.190Z,1001.93
2023-03-17T17:07:47.014Z,1001.93
2023-03-17T17:08:47.032Z,1001.93
2023-03-17T17:09:47.017Z,1001.91
2023-03-17T17:10:47.009Z,1001.89
2023-03-17T17:12:09.479Z,1001.86
2023-03-17T17:12:47.153Z,1001.87
2023-03-17T17:13:47.078Z,1001.89
2023-03-17T17:14:47.045Z,1001.89
2023-03-17T17:15:47.048Z,1001.89
2023-03-17T17:16:46.962Z,1001.90
2023-03-17T17:17:46.962Z,1001.90
2023-03-17T17:18:46.954Z,1001.90
2023-03-17T17:19:46.923Z,1001.88
2023-03-17T17:20:46.966Z,1001.85
2023-03-17T17:21:46.947Z,1001.85
2023-03-17T17:22:46.894Z,1001.85
2023-03-17T17:23:46.896Z,1001.83
2023-03-17T17:24:46.864Z,1001.82
2023-03-17T17:25:46.890Z,1001.82
2023-03-17T17:26:46.856Z,1001.84
2023-03-17T17:27:46.828Z,1001.86
2023-03-17T17:28:46.902Z,1001.86
2023-03-17T17:29:46.814Z,1001.88
2023-03-17T17:30:46.823Z,1001.90
2023-03-17T17:31:46.841Z,1001.90
2023-03-17T17:32:46.804Z,1001.90
2023-03-17T17:33:46.817Z,1001.93
2023-03-17T17:34:47.960Z,1001.96
2023-03-17T17:35:46.955Z,1002.01
2023-03-17T17:36:46.921Z,1002.03
2023-03-17T17:37:46.915Z,1002.07
2023-03-17T17:38:46.878Z,1002.10
2023-03-17T17:39:46.869Z,1002.12
2023-03-17T17:40:46.886Z,1002.12
2023-03-17T17:41:46.928Z,1002.12
2023-03-17T17:42:46.766Z,1002.13
2023-03-17T17:43:46.767Z,1002.13
2023-03-17T17:44:46.751Z,1002.14
2023-03-17T17:45:46.774Z,1002.13
2023-03-17T17:46:46.704Z,1002.17
2023-03-17T17:47:46.717Z,1002.21
2023-03-17T17:48:46.661Z,1002.24
2023-03-17T17:49:46.602Z,1002.27
2023-03-17T17:51:09.632Z,1002.29
2023-03-17T17:51:46.653Z,1002.29
2023-03-17T17:52:47.957Z,1002.28
2023-03-17T17:53:46.595Z,1002.27
2023-03-17T17:54:46.660Z,1002.27
2023-03-17T17:55:46.680Z,1002.28
2023-03-17T17:56:46.793Z,1002.28
2023-03-17T17:57:46.598Z,1002.29
2023-03-17T17:58:46.740Z,1002.33
2023-03-17T17:59:46.539Z,1002.34
2023-03-17T18:00:46.623Z,1002.33
2023-03-17T18:01:46.593Z,1002.35
2023-03-17T18:02:46.528Z,1002.36
2023-03-17T18:03:46.642Z,1002.38
2023-03-17T18:04:46.605Z,1002.40
2023-03-17T18:05:46.580Z,1002.39
2023-03-17T18:06:46.492Z,1002.38
2023-03-17T18:07:46.572Z,1002.34
2023-03-17T18:08:46.541Z,1002.35
2023-03-17T18:09:46.490Z,1002.31
2023-03-17T18:10:46.542Z,1002.31
2023-03-17T18:11:46.496Z,1002.30
2023-03-17T18:12:46.502Z,1002.34
2023-03-17T18:13:46.528Z,1002.38
2023-03-17T18:14:46.645Z,1002.41
2023-03-17T18:15:46.439Z,1002.42
2023-03-17T18:16:46.468Z,1002.43
2023-03-17T18:17:46.468Z,1002.46
2023-03-17T18:18:46.434Z,1002.43
2023-03-17T18:19:46.417Z,1002.44
2023-03-17T18:20:46.393Z,1002.40
2023-03-17T18:21:46.361Z,1002.38
2023-03-17T18:22:46.403Z,1002.36
2023-03-17T18:23:46.365Z,1002.36
2023-03-17T18:24:46.317Z,1002.24
2023-03-17T18:25:46.341Z,1002.26
2023-03-17T18:26:46.297Z,1002.28
2023-03-17T18:27:46.367Z,1002.28
2023-03-17T18:28:46.304Z,1002.37
2023-03-17T18:29:46.368Z,1002.41
2023-03-17T18:30:46.387Z,1002.43
2023-03-17T18:31:46.552Z,1002.42
2023-03-17T18:32:46.288Z,1002.40
2023-03-17T18:33:46.268Z,1002.36
2023-03-17T18:34:46.339Z,1002.37
2023-03-17T18:35:46.424Z,1002.35
2023-03-17T18:36:46.350Z,1002.32
2023-03-17T18:37:46.418Z,1002.33
2023-03-17T18:38:46.215Z,1002.40
2023-03-17T18:39:55.519Z,1002.46
2023-03-17T18:40:46.202Z,1002.50
2023-03-17T18:41:46.182Z,1002.51
2023-03-17T18:42:46.185Z,1002.52
2023-03-17T18:43:46.160Z,1002.56
2023-03-17T18:44:46.182Z,1002.60
2023-03-17T18:45:46.233Z,1002.65
2023-03-17T18:46:46.127Z,1002.68
2023-03-17T18:47:46.109Z,1002.71
2023-03-17T18:48:46.168Z,1002.74
2023-03-17T18:49:47.222Z,1002.78
2023-03-17T18:50:46.071Z,1002.83
2023-03-17T18:51:46.093Z,1002.85
2023-03-17T18:52:46.165Z,1002.85
2023-03-17T18:53:46.080Z,1002.80
2023-03-17T18:54:46.264Z,1002.76
2023-03-17T18:55:46.056Z,1002.75
2023-03-17T18:56:46.035Z,1002.72
2023-03-17T18:57:45.986Z,1002.69
2023-03-17T18:58:46.000Z,1002.68
2023-03-17T18:59:46.094Z,1002.65
2023-03-17T19:00:45.962Z,1002.64
2023-03-17T19:01:45.894Z,1002.64
2023-03-17T19:02:46.128Z,1002.62
2023-03-17T19:03:45.969Z,1002.59
2023-03-17T19:04:45.998Z,1002.55
2023-03-17T19:05:45.927Z,1002.53
2023-03-17T19:06:45.954Z,1002.53
2023-03-17T19:07:45.846Z,1002.51
2023-03-17T19:08:45.911Z,1002.49
2023-03-17T19:09:45.889Z,1002.49
2023-03-17T19:10:46.042Z,1002.49
2023-03-17T19:11:45.874Z,1002.48
2023-03-17T19:12:45.874Z,1002.44
2023-03-17T19:13:45.895Z,1002.44
2023-03-17T19:14:45.824Z,1002.43
2023-03-17T19:15:45.786Z,1002.49
2023-03-17T19:16:45.811Z,1002.52
2023-03-17T19:17:45.727Z,1002.51
2023-03-17T19:18:45.740Z,1002.52
2023-03-17T19:19:45.720Z,1002.57
2023-03-17T19:20:45.732Z,1002.61
2023-03-17T19:21:45.691Z,1002.62
2023-03-17T19:22:45.665Z,1002.60
2023-03-17T19:23:45.717Z,1002.62
2023-03-17T19:24:45.656Z,1002.63
2023-03-17T19:25:45.666Z,1002.63
2023-03-17T19:26:45.695Z,1002.64
2023-03-17T19:27:45.646Z,1002.56
2023-03-17T19:28:45.674Z,1002.51
2023-03-17T19:29:45.595Z,1002.44
2023-03-17T19:30:45.670Z,1002.44
2023-03-17T19:31:48.378Z,1002.47
2023-03-17T19:32:45.640Z,1002.52
2023-03-17T19:33:45.675Z,1002.54
2023-03-17T19:34:45.580Z,1002.58
2023-03-17T19:35:45.546Z,1002.54
2023-03-17T19:36:45.607Z,1002.58
2023-03-17T19:37:45.579Z,1002.59
2023-03-17T19:38:45.539Z,1002.61
2023-03-17T19:39:45.494Z,1002.56
2023-03-17T19:40:45.494Z,1002.56
2023-03-17T19:41:45.506Z,1002.56
2023-03-17T19:42:45.514Z,1002.56
2023-03-17T19:43:45.489Z,1002.54
2023-03-17T19:44:45.485Z,1002.54
2023-03-17T19:45:45.503Z,1002.53
2023-03-17T19:46:45.443Z,1002.57
2023-03-17T19:47:45.485Z,1002.55
2023-03-17T19:48:45.431Z,1002.59
2023-03-17T19:49:45.391Z,1002.63
2023-03-17T19:50:45.377Z,1002.63
2023-03-17T19:51:45.390Z,1002.65
2023-03-17T19:52:45.403Z,1002.67
2023-03-17T19:53:45.415Z,1002.62
2023-03-17T19:54:45.385Z,1002.62
2023-03-17T19:55:45.345Z,1002.64
2023-03-17T19:56:45.368Z,1002.61
2023-03-17T19:57:45.331Z,1002.62
2023-03-17T19:58:45.321Z,1002.59
2023-03-17T19:59:45.378Z,1002.58
2023-03-17T20:00:45.361Z,1002.60
2023-03-17T20:01:45.354Z,1002.61
2023-03-17T20:02:45.275Z,1002.62
2023-03-17T20:03:45.330Z,1002.63
2023-03-17T20:04:45.334Z,1002.61
2023-03-17T20:05:45.270Z,1002.59
2023-03-17T20:06:45.247Z,1002.60
2023-03-17T20:07:45.222Z,1002.61
2023-03-17T20:08:45.233Z,1002.62
2023-03-17T20:09:45.214Z,1002.62
2023-03-17T20:10:45.237Z,1002.63
2023-03-17T20:11:45.186Z,1002.61
2023-03-17T20:12:45.183Z,1002.60
2023-03-17T20:13:45.323Z,1002.59
2023-03-17T20:14:45.223Z,1002.63
2023-03-17T20:15:45.186Z,1002.64
2023-03-17T20:16:45.159Z,1002.66
2023-03-17T20:17:45.114Z,1002.67
2023-03-17T20:18:45.142Z,1002.64
2023-03-17T20:19:45.117Z,1002.68
2023-03-17T20:20:45.108Z,1002.68
2023-03-17T20:21:45.103Z,1002.71
2023-03-17T20:22:45.100Z,1002.73
2023-03-17T20:23:45.075Z,1002.73
2023-03-17T20:24:45.023Z,1002.71
2023-03-17T20:25:45.053Z,1002.69
2023-03-17T20:26:45.026Z,1002.68
2023-03-17T20:27:45.005Z,1002.69
2023-03-17T20:28:45.024Z,1002.70
2023-03-17T20:29:44.981Z,1002.72
2023-03-17T20:30:45.117Z,1002.73
2023-03-17T20:31:44.981Z,1002.76
2023-03-17T20:32:45.043Z,1002.77
2023-03-17T20:33:45.017Z,1002.78
2023-03-17T20:34:44.945Z,1002.75
2023-03-17T20:35:44.969Z,1002.76
2023-03-17T20:36:44.950Z,1002.76
2023-03-17T20:37:44.952Z,1002.78
2023-03-17T20:38:44.944Z,1002.80
2023-03-17T20:39:44.892Z,1002.82
2023-03-17T20:40:44.874Z,1002.83
2023-03-17T20:41:44.871Z,1002.85
2023-03-17T20:42:44.841Z,1002.83
2023-03-17T20:43:44.886Z,1002.82
2023-03-17T20:44:44.808Z,1002.82
2023-03-17T20:45:44.918Z,1002.83
2023-03-17T20:46:44.885Z,1002.85
2023-03-17T20:47:44.807Z,1002.86
2023-03-17T20:48:44.833Z,1002.86
2023-03-17T20:49:44.851Z,1002.87
2023-03-17T20:50:44.779Z,1002.89
2023-03-17T20:51:44.799Z,1002.89
2023-03-17T20:52:44.899Z,1002.90
2023-03-17T20:53:44.773Z,1002.93
2023-03-17T20:54:44.727Z,1002.92
2023-03-17T20:55:44.728Z,1002.95
2023-03-17T20:56:44.731Z,1002.96
2023-03-17T20:57:44.704Z,1002.97
2023-03-17T20:58:44.702Z,1002.99
2023-03-17T20:59:44.680Z,1002.99
2023-03-17T21:00:44.666Z,1003.01
2023-03-17T21:01:44.687Z,1003.02
2023-03-17T21:02:44.670Z,1003.03
2023-03-17T21:03:45.653Z,1003.05
2023-03-17T21:04:44.648Z,1003.07
2023-03-17T21:05:44.653Z,1003.08
2023-03-17T21:06:44.591Z,1003.08
2023-03-17T21:07:44.604Z,1003.10
2023-03-17T21:08:44.584Z,1003.11
2023-03-17T21:09:44.577Z,1003.11
2023-03-17T21:10:44.592Z,1003.13
2023-03-17T21:11:44.632Z,1003.10
2023-03-17T21:12:44.585Z,1003.11
2023-03-17T21:13:44.526Z,1003.08
2023-03-17T21:14:44.599Z,1003.07
2023-03-17T21:15:44.555Z,1003.07
2023-03-17T21:16:44.492Z,1003.08
2023-03-17T21:17:44.513Z,1003.07
2023-03-17T21:18:44.553Z,1003.07
2023-03-17T21:19:44.492Z,1003.07
2023-03-17T21:20:44.496Z,1003.08
2023-03-17T21:21:44.502Z,1003.06
2023-03-17T21:22:44.492Z,1003.04
2023-03-17T21:23:44.421Z,1003.00
2023-03-17T21:24:44.457Z,1003.02
2023-03-17T21:25:44.514Z,1003.04
2023-03-17T21:26:44.394Z,1003.04
2023-03-17T21:27:44.408Z,1003.04
2023-03-17T21:28:44.395Z,1003.06
2023-03-17T21:29:44.417Z,1003.08
2023-03-17T21:30:44.346Z,1003.08
2023-03-17T21:31:44.477Z,1003.07
2023-03-17T21:32:44.364Z,1003.07
2023-03-17T21:33:44.379Z,1003.06
2023-03-17T21:34:44.326Z,1003.06
2023-03-17T21:35:44.403Z,1003.06
2023-03-17T21:36:44.303Z,1003.07
2023-03-17T21:37:44.345Z,1003.07
2023-03-17T21:38:44.334Z,1003.08
2023-03-17T21:39:44.263Z,1003.09
2023-03-17T21:40:44.246Z,1003.07
2023-03-17T21:41:44.230Z,1003.04
2023-03-17T21:42:44.246Z,1003.04
2023-03-17T21:43:44.207Z,1003.05
2023-03-17T21:44:44.266Z,1003.04
2023-03-17T21:45:44.284Z,1003.04
2023-03-17T21:46:44.185Z,1003.06
2023-03-17T21:47:44.191Z,1003.08
2023-03-17T21:48:44.197Z,1003.05
2023-03-17T21:49:44.194Z,1003.06
2023-03-17T21:50:44.149Z,1003.03
2023-03-17T21:51:44.142Z,1003.06
2023-03-17T21:52:44.124Z,1003.04
2023-03-17T21:53:44.111Z,1003.04
2023-03-17T21:54:44.092Z,1003.05
2023-03-17T21:55:44.178Z,1003.05
2023-03-17T21:56:44.069Z,1003.05
2023-03-17T21:57:44.088Z,1003.03
2023-03-17T21:58:44.053Z,1003.03
2023-03-17T21:59:44.058Z,1003.00
2023-03-17T22:00:45.789Z,1003.00
2023-03-17T22:01:44.157Z,1003.01
2023-03-17T22:02:44.049Z,1003.00
2023-03-17T22:03:44.007Z,1002.97
2023-03-17T22:04:44.021Z,1002.97
2023-03-17T22:05:44.062Z,1002.97
2023-03-17T22:06:44.027Z,1002.99
2023-03-17T22:07:44.040Z,1003.00
2023-03-17T22:08:44.082Z,1002.97
2023-03-17T22:09:43.968Z,1003.00
2023-03-17T22:10:43.925Z,1003.01
2023-03-17T22:11:44.000Z,1003.04
2023-03-17T22:12:43.902Z,1003.03
2023-03-17T22:13:43.923Z,1003.05
2023-03-17T22:14:44.020Z,1003.03
2023-03-17T22:15:43.906Z,1003.01
2023-03-17T22:16:44.147Z,1003.00
2023-03-17T22:17:43.852Z,1003.01
2023-03-17T22:18:43.859Z,1003.02
2023-03-17T22:19:43.894Z,1003.02
2023-03-17T22:20:43.905Z,1003.03
2023-03-17T22:21:43.831Z,1003.03
2023-03-17T22:22:43.811Z,1003.06
2023-03-17T22:23:43.813Z,1003.08
2023-03-17T22:24:43.796Z,1003.05
2023-03-17T22:25:43.829Z,1003.06
2023-03-17T22:26:43.759Z,1003.09
2023-03-17T22:27:43.748Z,1003.08
2023-03-17T22:28:43.829Z,1003.10
2023-03-17T22:29:43.731Z,1003.08
2023-03-17T22:30:43.752Z,1003.09
2023-03-17T22:31:43.872Z,1003.10
2023-03-17T22:32:43.715Z,1003.11
2023-03-17T22:33:43.709Z,1003.10
2023-03-17T22:34:43.785Z,1003.08
2023-03-17T22:35:43.730Z,1003.11
2023-03-17T22:36:43.732Z,1003.10
2023-03-17T22:37:43.794Z,1003.09
2023-03-17T22:38:43.734Z,1003.07
2023-03-17T22:39:43.701Z,1003.09
2023-03-17T22:40:43.661Z,1003.10
2023-03-17T22:41:43.619Z,1003.10
2023-03-17T22:42:43.608Z,1003.12
2023-03-17T22:43:43.632Z,1003.11
2023-03-17T22:44:43.587Z,1003.14
2023-03-17T22:45:43.639Z,1003.13
2023-03-17T22:46:43.568Z,1003.14
2023-03-17T22:47:43.590Z,1003.15
2023-03-17T22:48:43.594Z,1003.14
2023-03-17T22:49:43.540Z,1003.17
2023-03-17T22:50:43.506Z,1003.16
2023-03-17T22:51:43.524Z,1003.17
2023-03-17T22:52:43.483Z,1003.18
2023-03-17T22:53:43.489Z,1003.20
2023-03-17T22:54:43.505Z,1003.22
2023-03-17T22:55:43.474Z,1003.23
2023-03-17T22:56:43.451Z,1003.24
2023-03-17T22:57:43.479Z,1003.23
2023-03-17T22:58:43.433Z,1003.25
2023-03-17T22:59:43.417Z,1003.24
2023-03-17T23:00:43.424Z,1003.24
2023-03-17T23:01:43.436Z,1003.25
2023-03-17T23:02:43.470Z,1003.28
2023-03-17T23:03:43.445Z,1003.28
2023-03-17T23:04:43.385Z,1003.30
2023-03-17T23:05:43.428Z,1003.27
2023-03-17T23:06:43.391Z,1003.29
2023-03-17T23:07:51.493Z,1003.29
2023-03-17T23:08:43.359Z,1003.30
2023-03-17T23:09:43.328Z,1003.32
2023-03-17T23:10:43.306Z,1003.34
2023-03-17T23:11:43.303Z,1003.32
2023-03-17T23:12:43.302Z,1003.31
2023-03-17T23:13:43.306Z,1003.29
2023-03-17T23:14:43.362Z,1003.27
2023-03-17T23:15:43.281Z,1003.26
2023-03-17T23:16:43.348Z,1003.26
2023-03-17T23:17:43.271Z,1003.28
2023-03-17T23:18:46.125Z,1003.31
2023-03-17T23:19:43.313Z,1003.31
2023-03-17T23:20:43.247Z,1003.33
2023-03-17T23:21:43.218Z,1003.34
2023-03-17T23:22:43.219Z,1003.38
2023-03-17T23:23:43.230Z,1003.38
2023-03-17T23:24:43.185Z,1003.39
2023-03-17T23:25:43.223Z,1003.39
2023-03-17T23:26:43.274Z,1003.41
2023-03-17T23:27:43.146Z,1003.39
2023-03-17T23:28:43.124Z,1003.39
2023-03-17T23:29:43.120Z,1003.39
2023-03-17T23:30:43.312Z,1003.38
2023-03-17T23:31:43.091Z,1003.38
2023-03-17T23:32:43.143Z,1003.37
2023-03-17T23:33:43.094Z,1003.38
2023-03-17T23:34:43.065Z,1003.40
2023-03-17T23:35:43.073Z,1003.39
2023-03-17T23:36:43.055Z,1003.41
2023-03-17T23:37:43.024Z,1003.41
2023-03-17T23:38:43.009Z,1003.41
2023-03-17T23:39:43.028Z,1003.42
2023-03-17T23:40:42.991Z,1003.43
2023-03-17T23:41:43.613Z,1003.46
2023-03-17T23:42:42.991Z,1003.47
2023-03-17T23:43:42.980Z,1003.48
2023-03-17T23:44:43.006Z,1003.50
2023-03-17T23:45:42.947Z,1003.51
2023-03-17T23:46:42.972Z,1003.53
2023-03-17T23:47:42.968Z,1003.55
2023-03-17T23:48:43.136Z,1003.57
2023-03-17T23:49:42.893Z,1003.54
2023-03-17T23:50:42.875Z,1003.57
2023-03-17T23:51:42.879Z,1003.54
2023-03-17T23:52:42.866Z,1003.54
2023-03-17T23:53:42.933Z,1003.55
2023-03-17T23:54:42.839Z,1003.55
2023-03-17T23:55:42.847Z,1003.55
2023-03-17T23:56:43.132Z,1003.55
2023-03-17T23:57:42.827Z,1003.55
2023-03-17T23:58:42.961Z,1003.55
2023-03-17T23:59:42.828Z,1003.57
